Bribie 1 — BRIBIE1 — position and weather

sailwx.info

Track history (hours):
 
Tides and Currents Weather Stations Pressure Air Temp Water Temp Dewpoint Dewpoint Depression Visibility Wind Speed Wind Dir Waves Ship Positions

Bribie 1

Last reported at 2018-Jan-21 06:32 UTC. Time now 2018-Jan-21 14:59 UTC.
Position S 27°04' E 153°09'.

Length 10 m; draft 1.2 m.

Type: SAR. MMSI: 503027760.

Date/timePositionNaut miles runAvg speedWind from/ knotsBaromVisibWave heightAir tempDewpointWater temp
2018-Jan-21 06:32S 27°04' E 153°09'0 0.0
2018-Jan-21 06:30S 27°04' E 153°09'0 0.0
2018-Jan-21 06:00S 27°04' E 153°09'0 0.0
2018-Jan-21 05:30S 27°04' E 153°09'1 2.7
2018-Jan-21 05:00S 27°05' E 153°09'2 4.9
2018-Jan-21 04:30S 27°06' E 153°12'4 7.0
2018-Jan-21 04:00S 27°04' E 153°08'0 0.4
2018-Jan-21 03:31S 27°04' E 153°08'0 0.6
2018-Jan-21 03:00S 27°04' E 153°09'0 0.0
2018-Jan-21 02:30S 27°04' E 153°09'0 0.0
2018-Jan-21 02:00S 27°04' E 153°09'0 0.0
2018-Jan-21 01:30S 27°04' E 153°09'1 1.9
2018-Jan-21 01:00S 27°04' E 153°08'1 2.0
2018-Jan-21 00:30S 27°04' E 153°09'1 1.7
2018-Jan-21 00:00S 27°03' E 153°08'0 0.3
2018-Jan-20 23:30S 27°03' E 153°08'1 2.0
2018-Jan-20 23:00S 27°04' E 153°09'0 0.1
2018-Jan-20 22:30S 27°04' E 153°09'0 0.0
2018-Jan-20 05:01S 27°04' E 153°09'0 0.0
2018-Jan-20 05:00S 27°04' E 153°09'3 5.6
2018-Jan-20 04:30S 27°06' E 153°10'3 0.5
2018-Jan-19 22:52S 27°04' E 153°09'0 0.1
2018-Jan-19 22:30S 27°04' E 153°09'0 0.1
2018-Jan-19 22:00S 27°04' E 153°09'  
Track history (hours):
 
Tides and Currents Weather Stations Pressure Air Temp Water Temp Dewpoint Dewpoint Depression Visibility Wind Speed Wind Dir Waves Ship Positions

Bribie 1

Last reported at 2018-Jan-21 06:32 UTC. Time now 2018-Jan-21 14:59 UTC.
Position S 27°04' E 153°09'.

Length 10 m; draft 1.2 m.

Type: SAR. MMSI: 503027760.

Date/timePositionNaut miles runAvg speedWind from/ knotsBaromVisibWave heightAir tempDewpointWater temp
2018-Jan-21 06:32S 27°04' E 153°09'0 0.0
2018-Jan-21 06:30S 27°04' E 153°09'0 0.0
2018-Jan-21 06:00S 27°04' E 153°09'0 0.0
2018-Jan-21 05:30S 27°04' E 153°09'1 2.7
2018-Jan-21 05:00S 27°05' E 153°09'2 4.9
2018-Jan-21 04:30S 27°06' E 153°12'4 7.0
2018-Jan-21 04:00S 27°04' E 153°08'0 0.4
2018-Jan-21 03:31S 27°04' E 153°08'0 0.6
2018-Jan-21 03:00S 27°04' E 153°09'0 0.0
2018-Jan-21 02:30S 27°04' E 153°09'0 0.0
2018-Jan-21 02:00S 27°04' E 153°09'0 0.0
2018-Jan-21 01:30S 27°04' E 153°09'1 1.9
2018-Jan-21 01:00S 27°04' E 153°08'1 2.0
2018-Jan-21 00:30S 27°04' E 153°09'1 1.7
2018-Jan-21 00:00S 27°03' E 153°08'0 0.3
2018-Jan-20 23:30S 27°03' E 153°08'1 2.0
2018-Jan-20 23:00S 27°04' E 153°09'0 0.1
2018-Jan-20 22:30S 27°04' E 153°09'0 0.0
2018-Jan-20 05:01S 27°04' E 153°09'0 0.0
2018-Jan-20 05:00S 27°04' E 153°09'3 5.6
2018-Jan-20 04:30S 27°06' E 153°10'3 0.5
2018-Jan-19 22:52S 27°04' E 153°09'0 0.1
2018-Jan-19 22:30S 27°04' E 153°09'0 0.1
2018-Jan-19 22:00S 27°04' E 153°09'  

Dump ship's entire track history